createdAt,value
2022-08-03T00:00:14.210Z,5.4
2022-08-03T00:05:18.747Z,4.8
2022-08-03T00:10:22.301Z,4.6
2022-08-03T00:15:26.816Z,4.9
2022-08-03T00:20:31.341Z,5.1
2022-08-03T00:25:34.868Z,4.9
2022-08-03T00:30:39.422Z,4.8
2022-08-03T00:35:50.920Z,4.8
2022-08-03T00:40:47.510Z,4.6
2022-08-03T00:45:52.025Z,4.3
2022-08-03T00:50:56.575Z,4
2022-08-03T00:56:00.140Z,4.1
2022-08-03T01:01:05.016Z,4.2
2022-08-03T01:06:09.169Z,4
2022-08-03T01:11:13.698Z,3.7
2022-08-03T01:16:17.291Z,3.4
2022-08-03T01:21:21.802Z,3.4
2022-08-03T01:26:26.378Z,4
2022-08-03T01:31:29.924Z,4
2022-08-03T01:36:34.409Z,4
2022-08-03T01:41:38.961Z,4.3
2022-08-03T01:46:47.551Z,4
2022-08-03T01:52:03.681Z,3.9
2022-08-03T01:56:51.569Z,3.8
2022-08-03T02:02:29.039Z,3.7
2022-08-03T02:07:03.107Z,3.8
2022-08-03T02:12:04.187Z,3.6
2022-08-03T02:17:08.707Z,3.2
2022-08-03T02:22:12.329Z,3.1
2022-08-03T02:27:16.815Z,3
2022-08-03T02:32:21.349Z,3
2022-08-03T02:37:24.889Z,3.3
2022-08-03T02:42:29.449Z,3.2
2022-08-03T02:47:53.864Z,3.3
2022-08-03T02:52:37.520Z,3.5
2022-08-03T02:57:42.057Z,3.6
2022-08-03T03:02:45.580Z,3.5
2022-08-03T03:07:53.024Z,3.5
2022-08-03T03:12:54.685Z,3.6
2022-08-03T03:17:58.200Z,3.6
2022-08-03T03:23:02.787Z,3.7
2022-08-03T03:28:07.301Z,3.6
2022-08-03T03:33:10.840Z,3.6
2022-08-03T03:38:15.381Z,3.3
2022-08-03T03:43:19.921Z,3.1
2022-08-03T03:48:23.462Z,3.1
2022-08-03T03:53:28.007Z,2.8
2022-08-03T03:58:32.596Z,2.5
2022-08-03T04:03:37.073Z,2.5
2022-08-03T04:08:40.618Z,2.5
2022-08-03T04:13:45.128Z,2.4
2022-08-03T04:18:49.686Z,2.4
2022-08-03T04:23:53.203Z,2.6
2022-08-03T04:28:57.834Z,2.6
2022-08-03T04:34:02.296Z,2.6
2022-08-03T04:39:05.864Z,2.6
2022-08-03T04:44:10.354Z,2.8
2022-08-03T04:49:14.963Z,2.9
2022-08-03T04:54:18.470Z,3.1
2022-08-03T04:59:22.995Z,3.2
2022-08-03T05:04:27.514Z,3.1
2022-08-03T05:09:49.942Z,3.1
2022-08-03T05:14:35.591Z,3.2
2022-08-03T05:19:40.134Z,3.3
2022-08-03T05:24:44.683Z,3.4
2022-08-03T05:29:48.233Z,3.5
2022-08-03T05:34:52.779Z,3.7
2022-08-03T05:39:57.296Z,3.7
2022-08-03T05:45:00.856Z,3.8
2022-08-03T05:50:05.396Z,3.9
2022-08-03T05:55:09.938Z,4.1
2022-08-03T06:00:13.467Z,4
2022-08-03T06:05:18.005Z,4.3
2022-08-03T06:10:35.257Z,4.3
2022-08-03T06:15:27.098Z,4.6
2022-08-03T06:20:30.597Z,4.7
2022-08-03T06:25:35.158Z,4.8
2022-08-03T06:30:39.701Z,4.8
2022-08-03T06:35:43.281Z,5.1
2022-08-03T06:40:47.812Z,5.4
2022-08-03T06:45:52.310Z,5.6
2022-08-03T06:50:55.840Z,5.7
2022-08-03T06:56:00.387Z,6.1
2022-08-03T07:01:04.978Z,6.6
2022-08-03T07:06:08.488Z,7
2022-08-03T07:11:13.081Z,6.5
2022-08-03T07:16:16.570Z,6.7
2022-08-03T07:21:21.103Z,6.8
2022-08-03T07:26:25.663Z,6.8
2022-08-03T07:31:29.159Z,6.9
2022-08-03T07:36:33.729Z,7.4
2022-08-03T07:41:38.263Z,8
2022-08-03T07:46:41.810Z,8.3
2022-08-03T07:51:46.380Z,9
2022-08-03T07:56:50.858Z,8.5
2022-08-03T08:01:55.430Z,8.6
2022-08-03T08:06:58.983Z,9.2
2022-08-03T08:12:03.528Z,9.6
2022-08-03T08:17:08.058Z,10
2022-08-03T08:22:11.576Z,9.7
2022-08-03T08:27:16.126Z,9.8
2022-08-03T08:32:20.686Z,9.3
2022-08-03T08:37:24.243Z,10.5
2022-08-03T08:42:28.789Z,10.6
2022-08-03T08:47:50.942Z,11.3
2022-08-03T08:52:36.869Z,11
2022-08-03T08:57:43.201Z,11
2022-08-03T09:02:45.945Z,10
2022-08-03T09:07:50.456Z,9.7
2022-08-03T09:12:54.042Z,11
2022-08-03T09:17:58.566Z,11.5
2022-08-03T09:23:14.061Z,11.5
2022-08-03T09:28:06.648Z,11.6
2022-08-03T09:33:11.219Z,11.4
2022-08-03T09:38:15.743Z,11.1
2022-08-03T09:43:19.305Z,11.1
2022-08-03T09:48:23.869Z,11.3
2022-08-03T09:53:28.391Z,12.4
2022-08-03T09:58:31.916Z,13.6
2022-08-03T10:03:36.501Z,14.4
2022-08-03T10:08:40.994Z,15
2022-08-03T10:13:45.561Z,13.8
2022-08-03T10:18:49.115Z,12.5
2022-08-03T10:23:53.681Z,12.1
2022-08-03T10:28:58.195Z,13.2
2022-08-03T10:34:01.778Z,14.1
2022-08-03T10:39:16.086Z,14.3
2022-08-03T10:44:10.831Z,15
2022-08-03T10:49:14.462Z,12.9
2022-08-03T10:54:18.893Z,13.1
2022-08-03T10:59:27.509Z,13.5
2022-08-03T11:04:27.026Z,14.2
2022-08-03T11:09:31.549Z,13.7
2022-08-03T11:14:36.128Z,14.5
2022-08-03T11:19:56.701Z,12.6
2022-08-03T11:24:44.240Z,12.5
2022-08-03T11:29:47.799Z,13.4
2022-08-03T11:34:52.315Z,14.2
2022-08-03T11:39:56.857Z,13.5
2022-08-03T11:45:00.403Z,13.2
2022-08-03T11:50:04.975Z,13.4
2022-08-03T11:55:09.492Z,13.4
2022-08-03T12:00:14.023Z,13.2
2022-08-03T12:05:17.601Z,14.3
2022-08-03T12:10:22.142Z,14.1
2022-08-03T12:15:26.669Z,15.5
2022-08-03T12:20:34.858Z,16
2022-08-03T12:25:38.572Z,16.3
2022-08-03T12:30:39.325Z,16
2022-08-03T12:35:52.150Z,14.9
2022-08-03T12:40:47.406Z,12.8
2022-08-03T12:45:51.908Z,13.6
2022-08-03T12:50:55.479Z,13.6
2022-08-03T12:56:05.820Z,14
2022-08-03T13:01:05.066Z,14
2022-08-03T13:06:09.075Z,14
2022-08-03T13:11:12.665Z,13.8
2022-08-03T13:16:19.300Z,14.8
2022-08-03T13:21:21.728Z,16.3
2022-08-03T13:26:25.301Z,15.7
2022-08-03T13:31:29.796Z,14.9
2022-08-03T13:36:59.246Z,14.7
2022-08-03T13:41:37.951Z,13.6
2022-08-03T13:46:42.445Z,14.4
2022-08-03T13:51:47.010Z,16.2
2022-08-03T13:56:50.533Z,13.6
2022-08-03T14:01:55.911Z,15.6
2022-08-03T14:06:59.646Z,16.2
2022-08-03T14:12:08.357Z,16.3
2022-08-03T14:17:07.723Z,16.5
2022-08-03T14:22:12.284Z,15.8
2022-08-03T14:27:16.846Z,15.4
2022-08-03T14:32:20.399Z,15.5
2022-08-03T14:37:24.933Z,14.7
2022-08-03T14:42:29.470Z,14
2022-08-03T14:47:33.063Z,14.4
2022-08-03T14:52:37.510Z,15.5
2022-08-03T14:57:42.081Z,16.1
2022-08-03T15:02:45.694Z,15.8
2022-08-03T15:07:50.180Z,15.9
2022-08-03T15:12:54.744Z,15.6
2022-08-03T15:18:00.101Z,15.6
2022-08-03T15:23:02.817Z,16.2
2022-08-03T15:28:07.341Z,15.7
2022-08-03T15:33:11.898Z,16.4
2022-08-03T15:38:15.450Z,16.1
2022-08-03T15:43:19.006Z,16.1
2022-08-03T15:48:26.591Z,16
2022-08-03T15:53:28.063Z,16.5
2022-08-03T15:59:09.886Z,16.3
2022-08-03T16:03:36.197Z,15.9
2022-08-03T16:08:40.710Z,15.8
2022-08-03T16:14:11.895Z,16.2
2022-08-03T16:18:48.786Z,15.3
2022-08-03T16:23:53.342Z,14.7
2022-08-03T16:28:57.895Z,14.7
2022-08-03T16:34:01.443Z,15.3
2022-08-03T16:39:06.042Z,15.4
2022-08-03T16:44:10.501Z,14.8
2022-08-03T16:49:14.089Z,14.6
2022-08-03T16:54:18.626Z,13.8
2022-08-03T16:59:23.182Z,14
2022-08-03T17:04:27.703Z,13.8
2022-08-03T17:09:38.199Z,13.8
2022-08-03T17:14:35.883Z,14.3
2022-08-03T17:19:40.332Z,14.4
2022-08-03T17:24:43.874Z,15.1
2022-08-03T17:29:48.394Z,14.6
2022-08-03T17:34:52.950Z,14.3
2022-08-03T17:45:01.737Z,13.6
2022-08-03T17:50:09.663Z,13.6
2022-08-03T17:55:58.553Z,12.8
2022-08-03T18:00:13.665Z,12.4
2022-08-03T18:05:18.213Z,11.8
2022-08-03T18:10:22.751Z,11.7
2022-08-03T18:15:26.306Z,11.5
2022-08-03T18:20:33.188Z,11.3
2022-08-03T18:30:39.115Z,11
2022-08-03T18:35:53.841Z,10.9
2022-08-03T18:40:48.710Z,10.6
2022-08-03T18:45:56.416Z,10.7
2022-08-03T18:50:56.065Z,10.5
2022-08-03T18:56:02.228Z,10.4
2022-08-03T19:01:04.164Z,10.3
2022-08-03T19:06:14.552Z,10.3
2022-08-03T19:11:13.226Z,10
2022-08-03T19:16:18.144Z,10
2022-08-03T19:21:21.306Z,9.9
2022-08-03T19:26:30.940Z,9.8
2022-08-03T19:31:31.221Z,9.6
2022-08-03T19:36:33.920Z,9.5
2022-08-03T19:41:42.152Z,9.3
2022-08-03T19:46:43.001Z,9.1
2022-08-03T19:51:58.391Z,9
2022-08-03T19:56:51.059Z,9.2
2022-08-03T20:01:54.782Z,9.3
2022-08-03T20:06:59.149Z,9.2
2022-08-03T20:12:03.701Z,9
2022-08-03T20:17:09.170Z,8.9
2022-08-03T20:22:17.972Z,8.8
2022-08-03T20:27:16.316Z,8.7
2022-08-03T20:32:24.356Z,8.4
2022-08-03T20:37:24.439Z,8.2
2022-08-03T20:42:28.931Z,8.3
2022-08-03T20:47:32.520Z,8.4
2022-08-03T20:52:37.023Z,8.2
2022-08-03T20:57:41.548Z,8.3
2022-08-03T21:02:46.100Z,8.3
2022-08-03T21:08:06.180Z,8.3
2022-08-03T21:12:54.227Z,8.1
2022-08-03T21:12:54.515Z,14.1
2022-08-03T21:13:05.029Z,11
2022-08-03T21:17:58.722Z,8
2022-08-03T21:23:02.268Z,8
2022-08-03T21:28:06.855Z,7.9
2022-08-03T21:33:11.351Z,7.7
2022-08-03T21:38:14.904Z,7.5
2022-08-03T21:43:19.482Z,7.4
2022-08-03T21:48:23.979Z,7.3
2022-08-03T21:53:28.087Z,7.3
2022-08-03T21:58:32.061Z,7.1
2022-08-03T22:03:53.071Z,6.9
2022-08-03T22:08:41.122Z,6.9
2022-08-03T22:13:44.804Z,6.9
2022-08-03T22:18:49.201Z,7
2022-08-03T22:23:53.737Z,7
2022-08-03T22:28:57.318Z,6.9
2022-08-03T22:34:01.796Z,6.8
2022-08-03T22:39:06.443Z,6.7
2022-08-03T22:44:09.915Z,6.7
2022-08-03T22:49:14.538Z,6.8
2022-08-03T22:54:18.957Z,6.7
2022-08-03T22:59:39.011Z,6.6
2022-08-03T23:04:27.058Z,6.6
2022-08-03T23:09:31.561Z,6.5
2022-08-03T23:14:36.132Z,6.4
2022-08-03T23:19:44.607Z,6.6
2022-08-03T23:24:44.390Z,6.6
2022-08-03T23:29:48.758Z,6.6
2022-08-03T23:34:52.287Z,6.4
2022-08-03T23:39:56.822Z,6.5
2022-08-03T23:45:05.503Z,6.5
2022-08-03T23:50:04.877Z,6.6
2022-08-03T23:55:09.410Z,6.6
